Time;durP1;ratioP1;P1;durP2;ratioP2;P2;SDS_P1;SDS_P2;PMS_P1;PMS_P2;Temp;Humidity;BMP_temperature;BMP_pressure;BME280_temperature;BME280_humidity;BME280_pressure;Samples;Min_cycle;Max_cycle;Signal;HPM_P1;HPM_P2
2022/08/06 00:03:26;;;;;;;17.73;6.70;;;;;;;23.34;73.59;99980.38;10401895;28;20033;-72
2022/08/06 00:08:27;;;;;;;10.57;6.10;;;;;;;23.32;73.12;99988.75;10407433;28;20041;-72
2022/08/06 00:13:28;;;;;;;7.47;5.28;;;;;;;23.30;73.34;99984.69;10407933;28;20042;-73
2022/08/06 00:18:28;;;;;;;8.52;5.70;;;;;;;23.28;73.26;99971.41;10405677;28;20041;-72
2022/08/06 00:23:30;;;;;;;9.77;5.38;;;;;;;23.27;73.15;99980.59;10406752;28;20048;-72
2022/08/06 00:28:31;;;;;;;13.60;5.72;;;;;;;22.75;73.31;99890.00;10405438;28;20044;-73
2022/08/06 00:33:31;;;;;;;10.20;5.22;;;;;;;23.14;73.32;99964.78;10407681;28;20511;-72
2022/08/06 00:38:32;;;;;;;9.88;5.68;;;;;;;23.21;73.29;99974.34;10406666;28;20073;-73
2022/08/06 00:43:33;;;;;;;9.52;5.40;;;;;;;23.08;73.48;99961.22;10406897;28;20417;-72
2022/08/06 00:48:34;;;;;;;10.68;5.72;;;;;;;23.13;73.93;99979.44;10405555;28;20046;-72
2022/08/06 00:53:36;;;;;;;55.75;8.15;;;;;;;22.16;75.01;99825.06;10406502;28;20046;-73
2022/08/06 00:58:38;;;;;;;16.20;6.53;;;;;;;22.96;75.37;99955.19;10406461;28;20045;-72
2022/08/06 01:03:39;;;;;;;29.85;7.20;;;;;;;22.89;76.04;99931.00;10406487;28;20039;-72
2022/08/06 01:08:40;;;;;;;19.58;8.40;;;;;;;22.97;76.40;99945.97;10405609;28;20048;-72
2022/08/06 01:13:41;;;;;;;17.85;7.38;;;;;;;23.06;76.79;99967.97;10406257;28;20041;-72
2022/08/06 01:18:51;;;;;;;16.27;6.20;;;;;;;23.05;77.76;99972.59;10405590;28;20033;-73
2022/08/06 01:24:12;;;;;;;13.55;7.03;;;;;;;23.05;79.15;99983.41;10405977;28;20436;-72
2022/08/06 01:29:24;;;;;;;26.30;8.95;;;;;;;22.83;80.01;99990.81;10405704;28;20045;-72
2022/08/06 01:34:36;;;;;;;20.27;8.05;;;;;;;22.70;80.93;99984.72;10408168;28;20094;-73
2022/08/06 01:39:40;;;;;;;13.15;7.28;;;;;;;22.58;80.35;99973.22;10412983;28;20447;-72
2022/08/06 01:44:45;;;;;;;11.48;7.70;;;;;;;22.56;80.84;99978.91;10411783;28;20042;-72
2022/08/06 01:49:50;;;;;;;10.50;6.70;;;;;;;22.62;80.71;100006.84;10412258;28;20045;-72
2022/08/06 01:54:53;;;;;;;13.52;7.15;;;;;;;22.50;80.47;100001.59;10412184;28;20038;-72
2022/08/06 01:59:56;;;;;;;12.93;7.53;;;;;;;22.41;80.63;99999.59;10412397;28;20416;-72
2022/08/06 02:05:00;;;;;;;14.07;7.57;;;;;;;22.43;82.14;99992.84;10411019;28;20183;-72
2022/08/06 02:10:06;;;;;;;13.15;7.65;;;;;;;21.89;82.80;99907.00;10411592;28;20053;-72
2022/08/06 02:15:11;;;;;;;15.98;7.60;;;;;;;22.36;81.59;99986.00;10410905;28;20037;-72
2022/08/06 02:20:15;;;;;;;10.35;7.65;;;;;;;22.41;82.82;99988.78;10410661;28;20068;-72
2022/08/06 02:25:17;;;;;;;17.92;7.75;;;;;;;22.30;81.79;99983.25;10411055;28;20037;-72
2022/08/06 02:30:18;;;;;;;10.98;7.53;;;;;;;22.44;81.80;99985.56;10411065;28;20403;-73
2022/08/06 02:35:19;;;;;;;17.08;7.68;;;;;;;22.43;81.99;99979.31;10410595;28;20053;-73
2022/08/06 02:40:43;;;;;;;17.25;8.38;;;;;;;22.49;84.38;99980.19;10410120;28;20117;-72
2022/08/06 02:46:04;;;;;;;16.10;7.80;;;;;;;22.28;84.64;99952.91;10409826;28;20097;-72
2022/08/06 02:51:10;;;;;;;11.95;7.82;;;;;;;22.35;84.19;99960.84;10410231;28;20161;-72
2022/08/06 02:56:13;;;;;;;16.20;7.47;;;;;;;21.90;82.72;99880.81;10409520;28;20045;-71
2022/08/06 03:01:22;;;;;;;14.75;7.32;;;;;;;22.42;84.34;99947.09;10409520;28;20046;-72
2022/08/06 03:06:25;;;;;;;13.65;6.70;;;;;;;22.45;82.48;99963.63;10409268;28;20050;-72
2022/08/06 03:11:31;;;;;;;15.90;7.55;;;;;;;22.44;82.68;99947.69;10398483;28;20044;-73
2022/08/06 03:16:35;;;;;;;15.65;6.93;;;;;;;22.69;82.63;99960.63;10368369;28;20058;-73
2022/08/06 03:21:38;;;;;;;12.80;7.68;;;;;;;22.75;81.65;99946.03;10367822;28;20042;-73
2022/08/06 03:26:40;;;;;;;14.90;6.78;;;;;;;22.81;80.80;99930.66;10368280;28;20113;-73
2022/08/06 03:31:42;;;;;;;13.45;6.60;;;;;;;23.26;80.25;99957.28;10367715;28;20038;-73
2022/08/06 03:36:43;;;;;;;10.15;6.47;;;;;;;24.32;75.75;99952.59;10368652;28;20171;-74
2022/08/06 03:41:46;;;;;;;18.90;6.75;;;;;;;24.34;73.80;99890.72;10377518;28;20496;-74
2022/08/06 03:47:19;;;;;;;9.63;6.18;;;;;;;24.06;73.09;99859.50;10407911;28;20041;-73
2022/08/06 03:52:24;;;;;;;16.52;6.60;;;;;;;24.38;73.61;99946.94;10407534;28;20141;-74
2022/08/06 03:57:31;;;;;;;15.75;7.75;;;;;;;24.23;74.31;99946.91;10407144;28;20038;-73
2022/08/06 04:02:37;;;;;;;17.33;7.50;;;;;;;23.67;74.03;99901.38;10407141;28;20177;-73
2022/08/06 04:07:39;;;;;;;11.38;6.68;;;;;;;23.93;74.09;99966.59;10383897;28;20134;-73
2022/08/06 04:12:41;;;;;;;14.23;7.43;;;;;;;23.39;74.37;99901.78;10366871;28;20038;-73
2022/08/06 04:17:45;;;;;;;15.48;6.90;;;;;;;23.83;74.36;100002.66;10366725;28;20574;-74
2022/08/06 04:22:46;;;;;;;16.30;6.80;;;;;;;23.43;74.56;100057.44;10365939;28;20072;-76
2022/08/06 04:27:48;;;;;;;22.25;7.03;;;;;;;23.23;75.46;100066.22;10384579;28;20132;-75
2022/08/06 04:32:50;;;;;;;23.75;7.28;;;;;;;23.22;75.27;100034.78;10406717;28;20037;-73
2022/08/06 04:37:52;;;;;;;14.27;7.13;;;;;;;23.14;74.88;100046.91;10407476;28;20473;-76
2022/08/06 04:42:53;;;;;;;14.55;5.95;;;;;;;23.00;75.18;100054.66;10406934;28;20076;-78
2022/08/06 04:47:56;;;;;;;11.80;4.20;;;;;;;22.84;75.01;100036.56;10406741;28;20078;-78
2022/08/06 04:53:11;;;;;;;27.92;5.75;;;;;;;22.00;84.33;99969.34;10406296;28;20043;-75
2022/08/06 04:58:15;;;;;;;17.98;5.47;;;;;;;21.24;84.86;99926.72;10406495;27;20646;-74
2022/08/06 05:03:16;;;;;;;23.58;6.55;;;;;;;21.70;87.31;100043.59;10382407;28;20143;-66
2022/08/06 05:08:18;;;;;;;31.33;6.85;;;;;;;21.69;92.69;100049.22;10496565;28;20590;-66
2022/08/06 05:13:22;;;;;;;18.45;6.03;;;;;;;21.64;94.16;100034.59;10503442;28;20041;-66
2022/08/06 05:18:36;;;;;;;14.63;6.03;;;;;;;21.75;99.37;100030.16;10518396;28;20039;-66
2022/08/06 05:23:45;;;;;;;20.65;6.68;;;;;;;21.77;100.00;100038.81;10501791;28;20503;-67
2022/08/06 05:28:45;;;;;;;12.68;6.35;;;;;;;21.80;97.64;100038.31;10502317;28;20435;-68
2022/08/06 05:33:46;;;;;;;14.82;6.53;;;;;;;21.82;97.07;100033.47;10502143;28;20044;-67
2022/08/06 05:38:47;;;;;;;9.48;6.32;;;;;;;21.83;96.73;100042.41;10501546;28;20079;-67
2022/08/06 05:43:48;;;;;;;13.35;5.07;;;;;;;20.93;96.55;99922.72;10500908;28;20127;-67
2022/08/06 05:48:55;;;;;;;15.07;5.43;;;;;;;21.69;99.96;100060.03;10501189;28;20044;-65
2022/08/06 05:54:05;;;;;;;12.13;5.47;;;;;;;21.37;99.90;100002.03;10501570;28;20047;-66
2022/08/06 05:59:26;;;;;;;13.88;5.78;;;;;;;21.85;100.00;100072.72;10516713;28;20043;-68
2022/08/06 06:04:27;;;;;;;11.48;5.10;;;;;;;21.80;96.77;100068.06;10516444;28;20090;-67
2022/08/06 06:09:29;;;;;;;14.82;4.50;;;;;;;21.83;97.32;100054.03;10500867;28;20040;-68
2022/08/06 06:14:38;;;;;;;9.57;4.13;;;;;;;21.43;97.15;99971.31;10500849;28;20071;-67
2022/08/06 06:20:13;;;;;;;7.05;3.90;;;;;;;22.00;96.76;100029.66;10500653;28;20449;-67
2022/08/06 06:25:25;;;;;;;8.07;3.88;;;;;;;21.61;95.34;99964.81;10500243;28;20053;-67
2022/08/06 06:30:55;;;;;;;8.35;3.92;;;;;;;22.20;95.47;100020.22;10500003;28;20408;-67
2022/08/06 06:35:59;;;;;;;7.80;4.18;;;;;;;21.88;94.96;99970.28;10498344;28;20059;-68
2022/08/06 06:41:25;;;;;;;7.40;4.18;;;;;;;22.10;98.94;100008.13;10499145;28;20493;-71
2022/08/06 06:46:41;;;;;;;15.15;4.55;;;;;;;21.74;99.49;99928.47;10499057;28;20573;-68
2022/08/06 06:51:52;;;;;;;8.18;3.85;;;;;;;22.32;97.28;100019.00;10499192;28;20500;-67
2022/08/06 06:56:56;;;;;;;26.02;4.60;;;;;;;22.31;96.03;100016.53;10499616;28;20036;-68
2022/08/06 07:01:58;;;;;;;9.13;3.67;;;;;;;22.20;94.21;100012.91;10498889;28;20405;-66
2022/08/06 07:07:01;;;;;;;6.50;4.15;;;;;;;22.36;92.90;100032.81;10498342;28;20048;-67
2022/08/06 07:12:03;;;;;;;11.85;4.47;;;;;;;22.40;92.30;100031.25;10496545;28;20527;-68
2022/08/06 07:17:06;;;;;;;10.80;5.00;;;;;;;22.51;93.36;100011.34;10498064;28;20046;-67
2022/08/06 07:22:08;;;;;;;10.27;4.05;;;;;;;22.55;92.43;99979.16;10497237;28;20041;-67
2022/08/06 07:27:10;;;;;;;12.80;4.93;;;;;;;22.47;90.82;99960.69;10497884;28;20051;-67
2022/08/06 07:32:11;;;;;;;6.68;3.65;;;;;;;22.99;88.73;100041.34;10487003;28;20457;-67
2022/08/06 07:37:14;;;;;;;19.45;4.15;;;;;;;23.05;88.50;100032.19;10530642;28;20131;-67
2022/08/06 07:42:17;;;;;;;7.32;3.35;;;;;;;22.37;86.47;99903.75;10528799;28;20070;-69
2022/08/06 07:47:21;;;;;;;10.63;3.70;;;;;;;22.83;86.87;99961.03;10516556;28;20547;-71
2022/08/06 07:52:25;;;;;;;11.02;3.83;;;;;;;23.51;88.03;100042.56;10495916;28;20292;-68
2022/08/06 07:57:27;;;;;;;18.17;4.75;;;;;;;23.53;84.47;100033.09;10513350;28;20519;-68
2022/08/06 08:02:28;;;;;;;21.55;4.97;;;;;;;23.88;83.49;100035.22;10501813;28;20041;-67
2022/08/06 08:07:31;;;;;;;12.00;3.88;;;;;;;24.19;82.81;100027.22;10530060;28;20407;-67
2022/08/06 08:12:36;;;;;;;7.38;4.07;;;;;;;24.34;78.90;100015.59;10512641;28;20407;-68
2022/08/06 08:17:37;;;;;;;9.98;3.67;;;;;;;24.65;77.17;100026.56;10537446;28;20040;-71
2022/08/06 08:22:39;;;;;;;5.45;3.17;;;;;;;24.32;76.22;99933.59;10518585;28;20488;-68
2022/08/06 08:27:40;;;;;;;12.60;4.63;;;;;;;24.94;76.09;99976.06;10513413;28;20130;-68
2022/08/06 08:32:40;;;;;;;5.78;3.40;;;;;;;25.25;73.39;99995.91;10524675;28;20107;-68
2022/08/06 08:37:42;;;;;;;7.00;3.85;;;;;;;25.14;73.98;99964.41;10505776;28;20416;-68
2022/08/06 08:42:47;;;;;;;7.35;3.65;;;;;;;25.22;72.44;99933.94;10497827;28;20040;-68
2022/08/06 08:47:52;;;;;;;27.52;5.10;;;;;;;25.63;73.51;99936.53;10502748;28;20407;-68
2022/08/06 08:53:02;;;;;;;6.18;2.88;;;;;;;26.38;70.06;99998.25;10502460;28;20044;-68
2022/08/06 08:58:02;;;;;;;4.90;3.08;;;;;;;26.57;68.73;99984.84;10503238;28;20483;-68
2022/08/06 09:03:05;;;;;;;6.30;2.97;;;;;;;26.68;66.45;99920.19;10503564;28;20129;-71
2022/08/06 09:08:09;;;;;;;4.05;2.67;;;;;;;27.40;65.33;99980.31;10502294;28;20044;-68
2022/08/06 09:13:10;;;;;;;3.67;2.60;;;;;;;26.97;64.02;99896.47;10509733;28;20033;-68
2022/08/06 09:18:11;;;;;;;5.72;2.75;;;;;;;27.45;62.86;99975.63;10524153;28;20404;-68
2022/08/06 09:23:16;;;;;;;5.65;3.22;;;;;;;27.60;62.54;99977.38;10507377;28;20043;-68
2022/08/06 09:28:30;;;;;;;4.15;2.60;;;;;;;27.65;59.67;99974.59;10543564;28;20048;-67
2022/08/06 09:33:33;;;;;;;4.65;2.78;;;;;;;27.36;60.17;99952.00;10550580;28;20500;-67
2022/08/06 09:38:52;;;;;;;5.55;3.00;;;;;;;27.48;61.04;99966.06;10512655;28;20076;-68
2022/08/06 09:43:56;;;;;;;4.07;2.65;;;;;;;27.44;59.89;99957.66;10502387;28;20084;-68
2022/08/06 09:48:59;;;;;;;6.28;3.70;;;;;;;27.62;59.89;99950.63;10512158;28;20044;-68
2022/08/06 09:54:00;;;;;;;5.20;2.30;;;;;;;27.81;55.39;99947.97;10501155;28;20066;-69
2022/08/06 09:59:03;;;;;;;2.88;1.90;;;;;;;27.66;52.96;99907.19;10540580;28;20050;-70
2022/08/06 10:04:04;;;;;;;14.95;2.30;;;;;;;28.04;52.65;99923.66;10552032;28;20044;-70
2022/08/06 10:09:10;;;;;;;4.57;1.90;;;;;;;28.35;53.71;99930.28;10534099;28;20051;-70
2022/08/06 10:14:22;;;;;;;5.05;2.00;;;;;;;28.15;49.78;99875.97;10502412;28;20037;-69
2022/08/06 10:19:23;;;;;;;6.82;1.90;;;;;;;28.22;51.59;99917.38;10525941;28;20079;-66
2022/08/06 10:24:24;;;;;;;2.40;1.65;;;;;;;28.32;51.03;99935.53;10539586;28;20078;-66
2022/08/06 10:29:26;;;;;;;5.88;1.83;;;;;;;28.65;50.23;99942.69;10541092;28;20048;-69
2022/08/06 10:34:29;;;;;;;10.03;2.27;;;;;;;28.79;49.50;99870.88;10542532;28;20134;-66
2022/08/06 10:39:34;;;;;;;26.03;3.13;;;;;;;29.57;46.89;99932.84;10542783;28;20109;-68
2022/08/06 10:44:37;;;;;;;12.88;2.25;;;;;;;29.99;43.63;99939.13;10540405;28;20570;-68
2022/08/06 10:49:38;;;;;;;;;;;;;;;30.52;40.31;99940.41;10541531;28;20039;-68
2022/08/06 10:54:40;;;;;;;3.40;1.48;;;;;;;30.51;40.32;99946.19;10541314;28;19916;-68
2022/08/06 10:59:42;;;;;;;3.45;1.38;;;;;;;30.39;39.49;99947.53;10540572;28;20079;-67
2022/08/06 11:04:55;;;;;;;3.42;1.30;;;;;;;30.24;38.61;99956.97;10540231;28;20094;-68
2022/08/06 11:10:25;;;;;;;7.55;1.70;;;;;;;29.86;37.70;99963.81;10539197;28;20047;-67
2022/08/06 11:15:26;;;;;;;11.77;2.05;;;;;;;28.78;41.33;99877.41;10517239;28;20050;-70
2022/08/06 11:20:47;;;;;;;5.50;1.50;;;;;;;29.05;40.99;99950.53;10555814;28;20047;-71
2022/08/06 11:25:50;;;;;;;15.38;2.05;;;;;;;28.93;42.81;99945.53;10538826;28;20036;-69
2022/08/06 11:30:54;;;;;;;3.45;1.73;;;;;;;28.73;42.60;99915.81;10538990;28;20502;-69
2022/08/06 11:35:55;;;;;;;5.80;1.60;;;;;;;28.61;43.53;99917.06;10538012;28;20099;-71
2022/08/06 11:41:01;;;;;;;9.07;1.85;;;;;;;28.78;43.82;99938.41;10538802;28;20063;-69
2022/08/06 11:46:22;;;;;;;2.60;1.40;;;;;;;28.68;42.70;99944.00;10538289;28;20122;-67
2022/08/06 11:51:56;;;;;;;3.45;1.50;;;;;;;28.72;42.08;99942.31;10539406;28;20064;-69
2022/08/06 11:57:09;;;;;;;4.85;1.77;;;;;;;28.87;43.58;99941.25;10537887;28;20036;-68
2022/08/06 12:02:12;;;;;;;8.32;1.77;;;;;;;28.93;43.52;99941.94;10538503;28;20032;-69
2022/08/06 12:07:23;;;;;;;2.28;1.55;;;;;;;28.87;43.70;99870.19;10537455;28;20565;-70
2022/08/06 12:12:23;;;;;;;7.88;1.83;;;;;;;28.60;44.37;99816.28;10538058;28;20201;-70
2022/08/06 12:17:26;;;;;;;2.85;1.40;;;;;;;28.95;43.74;99883.13;10536995;28;20044;-69
2022/08/06 12:22:28;;;;;;;6.75;1.60;;;;;;;28.71;43.00;99860.63;10528328;28;20623;-67
2022/08/06 12:27:35;;;;;;;3.38;1.50;;;;;;;29.21;41.18;99923.72;10511987;28;20094;-70
2022/08/06 12:32:36;;;;;;;6.57;1.85;;;;;;;29.06;42.72;99887.34;10495225;28;20039;-70
2022/08/06 12:37:42;;;;;;;10.52;2.10;;;;;;;29.35;43.22;99903.47;10495425;28;20068;-69
2022/08/06 12:42:45;;;;;;;7.22;1.73;;;;;;;29.39;42.44;99891.91;10493572;28;20059;-70
2022/08/06 12:48:00;;;;;;;8.07;1.77;;;;;;;29.25;42.08;99868.09;10494935;28;20578;-69
2022/08/06 12:53:04;;;;;;;14.02;2.30;;;;;;;29.47;42.05;99922.13;10494975;28;20040;-70
2022/08/06 12:58:05;;;;;;;9.82;1.60;;;;;;;29.40;42.58;99893.53;10494923;28;20072;-71
2022/08/06 13:03:08;;;;;;;4.88;1.90;;;;;;;29.45;42.38;99918.88;10495053;28;20102;-69
2022/08/06 13:08:09;;;;;;;;;;;;;;;29.64;42.72;99909.75;10494173;28;20044;-69
2022/08/06 13:13:10;;;;;;;5.03;1.90;;;;;;;29.21;43.24;99901.84;10495037;28;19922;-70
2022/08/06 13:18:16;;;;;;;5.85;1.88;;;;;;;29.32;43.13;99906.81;10495382;28;20127;-67
2022/08/06 13:23:29;;;;;;;15.57;2.20;;;;;;;29.17;42.57;99907.09;10495349;28;20411;-67
2022/08/06 13:28:30;;;;;;;27.98;4.55;;;;;;;28.99;43.70;99906.03;10495109;28;20459;-68
2022/08/06 13:33:31;;;;;;;25.25;4.05;;;;;;;28.81;44.06;99926.06;10502415;28;20098;-68
2022/08/06 13:38:35;;;;;;;16.13;4.05;;;;;;;28.53;44.02;99895.88;10523196;28;20083;-68
2022/08/06 13:43:42;;;;;;;23.80;5.95;;;;;;;28.42;44.37;99917.09;10538567;28;20089;-66
2022/08/06 13:48:50;;;;;;;20.33;7.55;;;;;;;28.17;45.03;99910.06;10504551;28;20071;-68
2022/08/06 13:53:51;;;;;;;37.63;29.02;;;;;;;27.94;45.55;99917.25;10500223;28;20040;-67
2022/08/06 13:58:52;;;;;;;19.58;4.53;;;;;;;27.41;46.04;99878.31;10501366;28;20037;-69
2022/08/06 14:03:53;;;;;;;37.50;5.90;;;;;;;27.61;46.38;99912.72;10501891;28;20037;-68
2022/08/06 14:08:53;;;;;;;18.70;5.68;;;;;;;27.61;46.08;99905.34;10499176;28;20377;-69
2022/08/06 14:13:54;;;;;;;9.98;3.33;;;;;;;27.57;46.22;99912.50;10493370;28;20057;-70
2022/08/06 14:18:55;;;;;;;17.15;3.13;;;;;;;27.56;46.21;99907.34;10501392;28;20391;-68
2022/08/06 14:23:56;;;;;;;23.85;6.20;;;;;;;27.47;46.46;99905.25;10516009;28;20037;-70
2022/08/06 14:28:57;;;;;;;13.25;4.20;;;;;;;26.95;46.68;99833.25;10500055;28;20159;-70
2022/08/06 14:33:59;;;;;;;16.42;4.78;;;;;;;27.17;47.21;99873.69;10499521;28;20561;-68
2022/08/06 14:39:00;;;;;;;13.70;6.22;;;;;;;27.29;47.34;99897.81;10500774;28;20067;-69
2022/08/06 14:49:21;;;;;;;21.80;6.00;;;;;;;26.31;48.21;99783.47;10499144;28;20403;-75
2022/08/06 14:54:22;;;;;;;19.55;4.28;;;;;;;26.64;48.42;99830.03;10499158;28;20056;-70
2022/08/06 14:59:25;;;;;;;15.43;4.50;;;;;;;26.89;48.35;99902.53;10528059;28;20519;-70
2022/08/06 15:04:25;;;;;;;16.00;6.30;;;;;;;26.88;48.97;99913.75;10540315;28;20040;-69
2022/08/06 15:09:27;;;;;;;14.15;2.90;;;;;;;26.67;49.21;99911.19;10512378;28;20060;-68
2022/08/06 15:14:28;;;;;;;12.40;2.67;;;;;;;26.59;49.13;99914.53;10498726;28;20055;-70
2022/08/06 15:19:28;;;;;;;24.90;3.05;;;;;;;26.47;49.40;99914.03;10498110;28;20123;-70
2022/08/06 15:24:32;;;;;;;11.20;2.83;;;;;;;26.31;49.34;99911.44;10497843;28;20043;-71
2022/08/06 15:29:33;;;;;;;8.88;2.70;;;;;;;25.89;49.64;99873.88;10497766;28;20040;-71
2022/08/06 15:34:34;;;;;;;13.02;3.70;;;;;;;26.14;49.24;99930.88;10497079;28;20041;-71
2022/08/06 15:39:35;;;;;;;16.80;2.92;;;;;;;25.70;49.53;99865.53;10497880;28;20416;-71
2022/08/06 15:44:36;;;;;;;20.38;2.80;;;;;;;26.01;49.75;99914.34;10512580;28;20056;-70
2022/08/06 15:49:39;;;;;;;11.55;2.90;;;;;;;25.93;50.39;99932.06;10496254;28;20040;-69
2022/08/06 15:54:40;;;;;;;9.35;3.15;;;;;;;25.25;50.84;99835.53;10495591;28;20121;-68
2022/08/06 15:59:41;;;;;;;7.75;2.67;;;;;;;25.62;50.86;99915.06;10496688;28;20098;-72
2022/08/06 16:04:42;;;;;;;12.32;2.53;;;;;;;25.65;50.51;99928.09;10496784;28;20047;-73
2022/08/06 16:09:43;;;;;;;5.43;2.10;;;;;;;24.76;49.97;99800.84;10494144;28;20040;-72
2022/08/06 16:14:44;;;;;;;8.38;2.42;;;;;;;25.51;50.09;99941.47;10532080;28;20126;-68
2022/08/06 16:19:45;;;;;;;10.43;2.35;;;;;;;25.30;50.19;99924.41;10537489;28;20496;-72
2022/08/06 16:24:47;;;;;;;5.50;1.95;;;;;;;25.25;50.22;99933.41;10537131;28;20388;-72
2022/08/06 16:29:48;;;;;;;6.93;1.83;;;;;;;25.27;50.80;99952.13;10537565;28;20495;-70
2022/08/06 16:34:51;;;;;;;8.57;1.88;;;;;;;25.19;51.32;99950.81;10537492;28;20036;-72
2022/08/06 16:39:51;;;;;;;17.07;2.70;;;;;;;25.07;51.68;99947.53;10537205;28;20043;-72
2022/08/06 16:44:52;;;;;;;6.60;1.90;;;;;;;25.01;52.02;99944.00;10537255;28;20495;-72
2022/08/06 16:49:53;;;;;;;5.78;1.83;;;;;;;24.86;52.14;99940.47;10537315;28;20104;-70
2022/08/06 16:54:54;;;;;;;10.20;2.28;;;;;;;24.68;52.87;99952.69;10530214;28;20040;-72
2022/08/06 16:59:55;;;;;;;24.95;3.70;;;;;;;24.22;52.73;99892.88;10524709;28;20051;-71
2022/08/06 17:04:55;;;;;;;15.38;4.63;;;;;;;24.41;53.06;99951.03;10531924;28;20089;-71
2022/08/06 17:09:57;;;;;;;8.90;3.92;;;;;;;24.25;53.49;99952.06;10542144;28;20039;-72
2022/08/06 17:14:58;;;;;;;11.25;4.10;;;;;;;24.28;53.99;99973.22;10538271;28;20028;-70
2022/08/06 17:19:58;;;;;;;11.90;3.97;;;;;;;24.12;55.62;99973.19;10541847;28;20046;-71
2022/08/06 17:25:00;;;;;;;8.98;4.00;;;;;;;23.54;55.67;99903.75;10533353;28;20444;-72
2022/08/06 17:30:01;;;;;;;13.13;3.60;;;;;;;23.72;57.61;99965.69;10502430;28;20134;-70
2022/08/06 17:35:05;;;;;;;15.55;4.00;;;;;;;23.64;58.56;99979.75;10540076;28;20121;-69
2022/08/06 17:40:07;;;;;;;10.00;3.58;;;;;;;23.42;59.69;99979.88;10543694;28;20051;-70
2022/08/06 17:45:08;;;;;;;10.88;3.67;;;;;;;23.10;59.48;99952.84;10500748;28;20408;-71
2022/08/06 17:50:09;;;;;;;12.68;3.10;;;;;;;23.09;61.13;99984.53;10522184;28;20539;-72
2022/08/06 17:55:11;;;;;;;17.60;3.30;;;;;;;22.96;61.82;99979.56;10525568;28;20511;-71
2022/08/06 18:00:12;;;;;;;22.77;3.63;;;;;;;22.34;63.04;99899.66;10537346;28;20048;-71
2022/08/06 18:05:13;;;;;;;13.23;3.55;;;;;;;22.51;64.04;99956.38;10533276;28;20032;-72
2022/08/06 18:10:26;;;;;;;15.70;4.00;;;;;;;22.29;64.99;99961.88;10540853;28;20066;-72
2022/08/06 18:15:28;;;;;;;17.23;3.50;;;;;;;22.03;65.41;99961.53;10539853;28;20032;-72
2022/08/06 18:20:30;;;;;;;20.58;3.97;;;;;;;21.79;66.56;99960.16;10535984;28;20267;-72
2022/08/06 18:25:32;;;;;;;30.10;4.60;;;;;;;21.40;67.04;99900.75;10530776;28;20040;-72
2022/08/06 18:30:34;;;;;;;11.73;3.92;;;;;;;21.87;67.10;99982.19;10536512;28;20425;-72
2022/08/06 18:35:35;;;;;;;20.25;4.65;;;;;;;21.88;67.98;99978.41;10531974;28;20060;-72
2022/08/06 18:40:36;;;;;;;18.58;4.70;;;;;;;21.61;68.10;99955.88;10524368;28;20036;-72
2022/08/06 18:45:37;;;;;;;19.40;4.80;;;;;;;21.70;68.74;99976.00;10517914;28;20059;-72
2022/08/06 18:50:38;;;;;;;20.58;5.30;;;;;;;21.17;68.57;99891.75;10526754;28;20044;-73
2022/08/06 18:55:39;;;;;;;15.23;6.97;;;;;;;21.26;69.38;99904.84;10536425;28;20100;-73
2022/08/06 19:00:40;;;;;;;27.85;11.10;;;;;;;21.57;69.88;99960.16;10503948;28;20059;-72
2022/08/06 19:05:41;;;;;;;30.92;16.80;;;;;;;21.60;70.57;99973.19;10524912;28;20044;-73
2022/08/06 19:10:42;;;;;;;21.40;8.68;;;;;;;21.71;71.19;99979.53;10514641;28;20598;-72
2022/08/06 19:15:43;;;;;;;31.15;7.20;;;;;;;21.73;71.05;99978.19;10540683;28;20039;-72
2022/08/06 19:20:45;;;;;;;24.77;6.38;;;;;;;21.57;71.77;99958.28;10540548;28;20044;-72
2022/08/06 19:25:46;;;;;;;17.35;6.28;;;;;;;21.59;71.63;99963.41;10536623;28;20506;-73
2022/08/06 19:30:47;;;;;;;18.13;6.90;;;;;;;21.01;71.94;99889.91;10507716;28;20082;-71
2022/08/06 19:35:48;;;;;;;14.88;5.93;;;;;;;21.27;72.73;99946.97;10514394;28;20056;-71
2022/08/06 19:40:49;;;;;;;14.77;6.63;;;;;;;21.35;72.78;99966.28;10503619;28;20117;-72
2022/08/06 19:45:50;;;;;;;17.58;7.65;;;;;;;21.26;73.51;99959.69;10528854;28;20044;-72
2022/08/06 19:50:51;;;;;;;22.85;7.35;;;;;;;20.68;73.57;99871.84;10516442;28;20405;-72
2022/08/06 19:55:51;;;;;;;19.98;7.15;;;;;;;20.93;74.94;99958.63;10537969;28;20052;-72
2022/08/06 20:00:54;;;;;;;19.13;7.63;;;;;;;20.69;75.47;99940.97;10538587;28;20039;-72
2022/08/06 20:05:55;;;;;;;17.27;6.90;;;;;;;20.40;75.45;99862.75;10537717;28;20051;-72
2022/08/06 20:10:56;;;;;;;9.50;4.47;;;;;;;20.72;75.07;99894.59;10537032;28;20032;-72
2022/08/06 20:15:57;;;;;;;10.13;4.95;;;;;;;21.18;74.96;99949.31;10538197;28;20035;-72
2022/08/06 20:21:01;;;;;;;9.98;5.22;;;;;;;21.19;76.01;99948.25;10538237;28;20502;-72
2022/08/06 20:26:02;;;;;;;12.90;5.00;;;;;;;21.07;76.08;99928.63;10538341;28;20031;-73
2022/08/06 20:31:03;;;;;;;12.93;4.55;;;;;;;21.17;76.52;99944.97;10517077;28;20044;-72
2022/08/06 20:36:04;;;;;;;13.07;5.72;;;;;;;20.87;77.52;99902.91;10514783;28;20056;-73
2022/08/06 20:41:08;;;;;;;18.88;6.28;;;;;;;20.89;78.75;99938.59;10514747;28;20044;-72
2022/08/06 20:46:08;;;;;;;;;;;;;;;20.98;76.90;99941.72;10515596;28;20941;-74
2022/08/06 20:51:09;;;;;;;69.40;30.80;;;;;;;20.72;77.70;99935.88;10508796;28;19917;-72
2022/08/06 20:56:10;;;;;;;124.68;58.20;;;;;;;20.28;78.11;99852.03;10495236;28;20131;-72
2022/08/06 21:01:11;;;;;;;38.97;19.92;;;;;;;19.81;78.42;99800.25;10495336;28;20045;-72
2022/08/06 21:06:12;;;;;;;24.92;13.02;;;;;;;20.19;78.31;99837.31;10495279;28;20411;-73
2022/08/06 21:11:13;;;;;;;12.43;9.05;;;;;;;20.48;79.09;99883.09;10494834;28;20091;-72
2022/08/06 21:16:16;;;;;;;8.02;5.45;;;;;;;20.75;78.79;99940.78;10494458;28;20446;-72
2022/08/06 21:21:17;;;;;;;5.95;4.50;;;;;;;20.76;78.75;99941.63;10494410;28;20036;-72
2022/08/06 21:26:17;;;;;;;15.60;4.22;;;;;;;20.61;79.02;99915.22;10494118;28;20150;-72
2022/08/06 21:31:18;;;;;;;5.88;3.90;;;;;;;20.68;79.06;99929.34;10495264;28;20029;-73
2022/08/06 21:36:19;;;;;;;5.25;3.20;;;;;;;20.36;79.46;99887.75;10494048;28;20060;-72
2022/08/06 21:41:26;;;;;;;5.63;3.85;;;;;;;20.61;79.78;99927.88;10494745;28;20045;-72
2022/08/06 21:46:28;;;;;;;7.72;3.80;;;;;;;20.60;80.16;99945.13;10493905;28;20037;-72
2022/08/06 21:51:30;;;;;;;6.05;3.50;;;;;;;19.63;79.99;99776.16;10496898;28;20034;-72
2022/08/06 21:56:32;;;;;;;8.60;6.63;;;;;;;20.64;80.14;99927.38;10501948;28;20037;-72
2022/08/06 22:01:32;;;;;;;14.93;8.70;;;;;;;20.62;80.43;99913.31;10501431;28;20492;-72
2022/08/06 22:06:33;;;;;;;8.80;4.68;;;;;;;20.55;80.82;99907.25;10500560;28;20048;-72
2022/08/06 22:11:35;;;;;;;9.63;4.55;;;;;;;20.41;81.20;99910.25;10500273;28;20044;-72
2022/08/06 22:16:36;;;;;;;17.73;8.35;;;;;;;20.35;81.45;99913.91;10500768;28;20508;-72
2022/08/06 22:21:37;;;;;;;14.55;6.70;;;;;;;20.14;81.63;99877.66;10499983;28;20045;-72
2022/08/06 22:26:38;;;;;;;33.05;10.48;;;;;;;20.09;81.97;99871.38;10500325;28;20416;-72
2022/08/06 22:31:38;;;;;;;31.38;11.18;;;;;;;20.19;81.86;99898.50;10500206;28;20119;-72
2022/08/06 22:36:39;;;;;;;42.67;22.30;;;;;;;20.00;82.03;99879.03;10499855;28;20076;-74
2022/08/06 22:41:40;;;;;;;42.55;20.00;;;;;;;19.74;82.53;99839.97;10499963;28;20128;-72
2022/08/06 22:46:41;;;;;;;40.30;13.68;;;;;;;19.98;83.22;99903.53;10500086;28;20044;-73
2022/08/06 22:51:42;;;;;;;13.65;6.10;;;;;;;19.92;83.63;99912.56;10498935;28;20044;-72
2022/08/06 22:56:42;;;;;;;7.07;4.03;;;;;;;19.90;83.76;99909.31;10498924;28;20036;-73
2022/08/06 23:01:44;;;;;;;4.88;3.38;;;;;;;19.94;84.20;99915.03;10499235;28;20040;-72
2022/08/06 23:06:45;;;;;;;4.38;3.20;;;;;;;18.99;84.66;99760.09;10498219;28;20056;-72
2022/08/06 23:11:46;;;;;;;12.90;7.88;;;;;;;19.60;84.71;99861.78;10498791;28;20036;-72
2022/08/06 23:16:46;;;;;;;22.77;17.58;;;;;;;19.94;84.67;99907.75;10498409;28;20055;-72
2022/08/06 23:21:47;;;;;;;6.90;5.10;;;;;;;19.80;84.96;99882.13;10498093;28;20540;-72
2022/08/06 23:26:48;;;;;;;5.68;3.63;;;;;;;19.98;85.18;99894.59;10497694;28;20458;-72